createdAt,value
2019-01-25T00:02:09.476Z,87.01
2019-01-25T00:04:40.225Z,86.60
2019-01-25T00:07:10.721Z,86.66
2019-01-25T00:09:41.165Z,86.80
2019-01-25T00:12:11.567Z,86.81
2019-01-25T00:14:42.054Z,87.29
2019-01-25T00:17:12.680Z,87.09
2019-01-25T00:19:43.146Z,87.05
2019-01-25T00:22:13.595Z,87.41
2019-01-25T00:24:44.357Z,86.88
2019-01-25T00:27:15.239Z,87.15
2019-01-25T00:29:45.705Z,86.43
2019-01-25T00:32:16.145Z,86.94
2019-01-25T00:34:46.625Z,86.76
2019-01-25T00:37:17.063Z,87.97
2019-01-25T00:39:47.547Z,87.22
2019-01-25T00:42:18.005Z,87.09
2019-01-25T00:44:48.462Z,87.07
2019-01-25T00:47:19.212Z,86.94
2019-01-25T00:49:49.861Z,86.72
2019-01-25T00:52:20.308Z,86.96
2019-01-25T00:54:51.226Z,86.65
2019-01-25T00:57:21.644Z,87.16
2019-01-25T00:59:52.057Z,89.62
2019-01-25T01:02:22.531Z,87.04
2019-01-25T01:04:53.325Z,86.75
2019-01-25T01:07:23.806Z,86.22
2019-01-25T01:09:54.272Z,86.23
2019-01-25T01:12:24.731Z,86.84
2019-01-25T01:14:55.176Z,87.56
2019-01-25T01:17:25.663Z,87.66
2019-01-25T01:19:56.077Z,87.50
2019-01-25T01:22:26.812Z,87.33
2019-01-25T01:24:57.346Z,87.62
2019-01-25T01:27:28.052Z,87.65
2019-01-25T01:29:58.530Z,88.26
2019-01-25T01:32:28.975Z,88.85
2019-01-25T01:34:59.463Z,88.43
2019-01-25T01:37:30.165Z,88.50
2019-01-25T01:40:00.598Z,88.41
2019-01-25T01:42:31.331Z,87.92
2019-01-25T01:45:02.334Z,88.75
2019-01-25T01:47:32.853Z,88.00
2019-01-25T01:50:03.238Z,88.04
2019-01-25T01:52:33.981Z,87.84
2019-01-25T01:55:04.761Z,88.43
2019-01-25T01:57:35.471Z,88.54
2019-01-25T02:00:12.120Z,88.75
2019-01-25T02:02:42.581Z,88.42
2019-01-25T02:05:13.085Z,87.74
2019-01-25T02:07:43.837Z,88.04
2019-01-25T02:10:17.870Z,87.99
2019-01-25T02:12:48.931Z,88.14
2019-01-25T02:15:20.671Z,88.02
2019-01-25T02:17:52.699Z,88.10
2019-01-25T02:20:26.664Z,88.23
2019-01-25T02:22:57.592Z,88.45
2019-01-25T02:25:28.309Z,88.36
2019-01-25T02:27:58.856Z,88.03
2019-01-25T02:30:29.629Z,88.79
2019-01-25T02:33:00.061Z,88.28
2019-01-25T02:35:30.587Z,89.33
2019-01-25T02:38:01.298Z,88.96
2019-01-25T02:40:38.586Z,88.13
2019-01-25T02:43:03.954Z,88.55
2019-01-25T02:45:34.710Z,88.40
2019-01-25T02:48:05.661Z,88.44
2019-01-25T02:50:36.325Z,88.98
2019-01-25T02:53:07.054Z,88.75
2019-01-25T02:55:37.499Z,89.16
2019-01-25T02:58:08.005Z,88.96
2019-01-25T03:00:38.762Z,88.95
2019-01-25T03:03:09.242Z,88.32
2019-01-25T03:05:39.713Z,88.79
2019-01-25T03:08:10.205Z,88.98
2019-01-25T03:10:47.093Z,89.30
2019-01-25T03:13:12.928Z,89.51
2019-01-25T03:15:43.311Z,89.64
2019-01-25T03:18:14.014Z,90.15
2019-01-25T03:20:44.457Z,89.55
2019-01-25T03:23:14.895Z,90.51
2019-01-25T03:25:45.330Z,90.62
2019-01-25T03:28:16.498Z,91.40
2019-01-25T03:30:46.955Z,92.80
2019-01-25T03:33:17.480Z,91.45
2019-01-25T03:35:47.954Z,91.67
2019-01-25T03:38:18.443Z,91.09
2019-01-25T03:40:54.990Z,91.37
2019-01-25T03:43:21.483Z,91.40
2019-01-25T03:45:51.953Z,91.64
2019-01-25T03:48:22.386Z,92.24
2019-01-25T03:50:52.857Z,93.45
2019-01-25T03:53:23.559Z,93.37
2019-01-25T03:55:54.035Z,94.08
2019-01-25T03:58:24.795Z,94.24
2019-01-25T04:00:55.255Z,94.54
2019-01-25T04:03:25.925Z,94.72
2019-01-25T04:05:56.669Z,94.92
2019-01-25T04:08:27.421Z,94.92
2019-01-25T04:11:03.341Z,95.44
2019-01-25T04:13:30.608Z,95.37
2019-01-25T04:16:01.114Z,95.71
2019-01-25T04:18:31.560Z,95.75
2019-01-25T04:21:02.312Z,95.82
2019-01-25T04:23:33.040Z,95.84
2019-01-25T04:26:03.503Z,95.86
2019-01-25T04:28:34.475Z,95.43
2019-01-25T04:31:05.022Z,95.76
2019-01-25T04:33:35.469Z,95.79
2019-01-25T04:36:06.259Z,96.02
2019-01-25T04:38:36.705Z,95.89
2019-01-25T04:41:11.746Z,95.64
2019-01-25T04:43:39.334Z,95.92
2019-01-25T04:46:10.080Z,96.16
2019-01-25T04:48:40.788Z,96.31
2019-01-25T04:51:11.299Z,96.60
2019-01-25T04:53:41.751Z,96.66
2019-01-25T04:56:12.219Z,96.84
2019-01-25T04:58:42.714Z,96.84
2019-01-25T05:01:13.199Z,97.19
2019-01-25T05:03:43.671Z,97.13
2019-01-25T05:06:17.879Z,97.13
2019-01-25T05:08:48.586Z,96.87
2019-01-25T05:11:20.451Z,97.16
2019-01-25T05:13:50.914Z,97.17
2019-01-25T05:16:21.312Z,97.21
2019-01-25T05:18:51.736Z,97.25
2019-01-25T05:21:26.529Z,96.95
2019-01-25T05:23:56.990Z,97.11
2019-01-25T05:26:27.693Z,97.30
2019-01-25T05:28:58.190Z,96.99
2019-01-25T05:31:30.184Z,96.83
2019-01-25T05:34:00.654Z,96.92
2019-01-25T05:36:31.140Z,97.11
2019-01-25T05:39:01.618Z,97.23
2019-01-25T05:41:32.063Z,97.09
2019-01-25T05:44:02.791Z,97.17
2019-01-25T05:46:33.552Z,97.35
2019-01-25T05:49:04.107Z,97.84
2019-01-25T05:51:34.667Z,97.80
2019-01-25T05:54:05.294Z,97.82
2019-01-25T05:56:42.961Z,98.07
2019-01-25T05:59:13.679Z,98.12
2019-01-25T06:01:47.484Z,98.46
2019-01-25T06:04:18.334Z,98.79
2019-01-25T06:06:48.851Z,99.10
2019-01-25T06:09:22.654Z,99.69
2019-01-25T06:11:53.428Z,100.00
2019-01-25T06:14:23.880Z,100.00
2019-01-25T06:16:54.398Z,100.00
2019-01-25T06:19:25.107Z,100.00
2019-01-25T06:21:57.159Z,100.00
2019-01-25T06:24:27.891Z,100.00
2019-01-25T06:26:58.389Z,100.00
2019-01-25T06:29:33.972Z,100.00
2019-01-25T06:32:04.696Z,100.00
2019-01-25T06:34:35.439Z,100.00
2019-01-25T06:37:05.940Z,100.00
2019-01-25T06:39:36.364Z,100.00
2019-01-25T06:42:06.927Z,100.00
2019-01-25T06:44:37.407Z,100.00
2019-01-25T06:47:08.575Z,100.00
2019-01-25T06:49:39.011Z,100.00
2019-01-25T06:52:09.809Z,100.00
2019-01-25T06:54:40.259Z,100.00
2019-01-25T06:57:23.170Z,100.00
2019-01-25T06:59:53.661Z,100.00
2019-01-25T07:02:29.625Z,100.00
2019-01-25T07:04:59.993Z,100.00
2019-01-25T07:07:36.040Z,100.00
2019-01-25T07:10:13.129Z,100.00
2019-01-25T07:12:43.589Z,100.00
2019-01-25T07:15:17.984Z,100.00
2019-01-25T07:17:48.430Z,100.00
2019-01-25T07:20:19.366Z,100.00
2019-01-25T07:22:49.801Z,100.00
2019-01-25T07:25:20.328Z,100.00
2019-01-25T07:27:51.933Z,100.00
2019-01-25T07:30:22.718Z,100.00
2019-01-25T07:32:53.440Z,100.00
2019-01-25T07:35:24.172Z,100.00
2019-01-25T07:37:54.692Z,100.00
2019-01-25T07:40:25.146Z,100.00
2019-01-25T07:42:55.937Z,100.00
2019-01-25T07:45:26.614Z,100.00
2019-01-25T07:47:56.997Z,100.00
2019-01-25T07:50:27.429Z,100.00
2019-01-25T07:52:57.895Z,100.00
2019-01-25T07:55:28.681Z,100.00
2019-01-25T07:57:59.322Z,100.00
2019-01-25T08:00:29.768Z,100.00
2019-01-25T08:03:00.486Z,100.00
2019-01-25T08:05:31.223Z,100.00
2019-01-25T08:08:01.696Z,100.00
2019-01-25T08:10:33.242Z,100.00
2019-01-25T08:13:03.741Z,100.00
2019-01-25T08:15:34.302Z,100.00
2019-01-25T08:18:05.041Z,100.00
2019-01-25T08:20:35.717Z,100.00
2019-01-25T08:23:06.206Z,100.00
2019-01-25T08:25:36.668Z,100.00
2019-01-25T08:28:07.113Z,100.00
2019-01-25T08:30:37.594Z,100.00
2019-01-25T08:33:08.409Z,100.00
2019-01-25T08:35:38.857Z,100.00
2019-01-25T08:38:10.978Z,99.97
2019-01-25T08:40:41.999Z,100.00
2019-01-25T08:43:12.483Z,99.64
2019-01-25T08:45:43.004Z,100.00
2019-01-25T08:48:13.413Z,100.00
2019-01-25T08:50:44.191Z,100.00
2019-01-25T08:53:14.914Z,99.51
2019-01-25T08:55:45.342Z,99.70
2019-01-25T08:58:15.925Z,99.84
2019-01-25T09:00:46.426Z,99.68
2019-01-25T09:03:16.853Z,99.47
2019-01-25T09:05:47.305Z,99.26
2019-01-25T09:08:17.814Z,99.51
2019-01-25T09:10:48.245Z,99.74
2019-01-25T09:13:19.187Z,99.33
2019-01-25T09:15:49.905Z,99.80
2019-01-25T09:18:20.677Z,100.00
2019-01-25T09:20:51.079Z,99.18
2019-01-25T09:23:21.870Z,98.68
2019-01-25T09:25:52.597Z,99.15
2019-01-25T09:28:23.049Z,100.00
2019-01-25T09:30:53.743Z,99.32
2019-01-25T09:33:24.243Z,98.98
2019-01-25T09:35:54.929Z,99.47
2019-01-25T09:38:25.397Z,98.91
2019-01-25T09:40:55.850Z,99.63
2019-01-25T09:43:26.358Z,100.00
2019-01-25T09:45:56.834Z,99.23
2019-01-25T09:48:27.592Z,99.01
2019-01-25T09:50:58.220Z,100.00
2019-01-25T09:53:28.760Z,99.09
2019-01-25T09:55:59.602Z,99.09
2019-01-25T09:58:30.019Z,99.97
2019-01-25T10:01:10.046Z,100.00
2019-01-25T10:03:40.428Z,100.00
2019-01-25T10:06:10.860Z,100.00
2019-01-25T10:08:41.239Z,99.58
2019-01-25T10:11:11.707Z,100.00
2019-01-25T10:13:42.405Z,100.00
2019-01-25T10:16:13.117Z,100.00
2019-01-25T10:18:43.841Z,100.00
2019-01-25T10:21:14.268Z,100.00
2019-01-25T10:23:44.674Z,100.00
2019-01-25T10:26:15.366Z,100.00
2019-01-25T10:28:45.767Z,100.00
2019-01-25T10:31:16.499Z,100.00
2019-01-25T10:33:47.097Z,100.00
2019-01-25T10:36:17.507Z,99.81
2019-01-25T10:38:47.993Z,98.37
2019-01-25T10:41:18.715Z,98.87
2019-01-25T10:43:50.583Z,99.19
2019-01-25T10:46:21.317Z,98.20
2019-01-25T10:48:54.009Z,97.87
2019-01-25T10:51:24.098Z,97.52
2019-01-25T10:53:54.558Z,97.42
2019-01-25T10:56:25.009Z,97.66
2019-01-25T10:58:55.761Z,97.14
2019-01-25T11:01:26.461Z,97.31
2019-01-25T11:03:56.739Z,96.35
2019-01-25T11:06:27.491Z,97.69
2019-01-25T11:08:57.924Z,97.03
2019-01-25T11:11:28.296Z,97.68
2019-01-25T11:13:58.770Z,97.61
2019-01-25T11:16:29.531Z,97.59
2019-01-25T11:19:00.225Z,98.53
2019-01-25T11:21:30.884Z,98.19
2019-01-25T11:24:02.224Z,98.89
2019-01-25T11:26:32.783Z,98.52
2019-01-25T11:29:03.465Z,98.60
2019-01-25T11:31:34.215Z,98.59
2019-01-25T11:34:05.128Z,98.25
2019-01-25T11:36:36.010Z,97.86
2019-01-25T11:39:11.222Z,97.85
2019-01-25T11:41:42.277Z,97.07
2019-01-25T11:44:13.130Z,96.39
2019-01-25T11:46:43.929Z,95.86
2019-01-25T11:49:14.577Z,95.40
2019-01-25T11:51:45.333Z,95.56
2019-01-25T11:54:16.122Z,95.62
2019-01-25T11:56:47.016Z,95.43
2019-01-25T11:59:17.670Z,95.93
2019-01-25T12:01:48.734Z,97.34
2019-01-25T12:04:19.404Z,95.46
2019-01-25T12:06:50.294Z,95.25
2019-01-25T12:09:21.315Z,94.78
2019-01-25T12:11:52.599Z,93.56
2019-01-25T12:14:23.282Z,92.57
2019-01-25T12:16:53.993Z,92.69
2019-01-25T12:19:24.764Z,92.04
2019-01-25T12:21:55.738Z,91.46
2019-01-25T12:24:26.803Z,90.94
2019-01-25T12:26:57.355Z,89.93
2019-01-25T12:29:28.017Z,89.75
2019-01-25T12:31:58.724Z,92.73
2019-01-25T12:34:29.562Z,93.34
2019-01-25T12:37:04.609Z,86.93
2019-01-25T12:39:32.592Z,88.69
2019-01-25T12:42:03.150Z,86.35
2019-01-25T12:44:33.870Z,86.44
2019-01-25T12:47:04.667Z,85.62
2019-01-25T12:49:35.283Z,87.49
2019-01-25T12:52:10.741Z,84.02
2019-01-25T12:54:41.470Z,84.26
2019-01-25T12:57:11.959Z,84.19
2019-01-25T12:59:42.477Z,84.54
2019-01-25T13:02:13.510Z,83.88
2019-01-25T13:04:44.253Z,84.33
2019-01-25T13:07:14.991Z,84.79
2019-01-25T13:09:45.419Z,84.25
2019-01-25T13:12:15.871Z,83.76
2019-01-25T13:14:46.375Z,84.07
2019-01-25T13:17:16.782Z,84.13
2019-01-25T13:19:47.396Z,83.33
2019-01-25T13:22:17.782Z,83.09
2019-01-25T13:24:48.534Z,83.51
2019-01-25T13:27:18.976Z,82.72
2019-01-25T13:29:49.754Z,82.96
2019-01-25T13:32:20.201Z,83.71
2019-01-25T13:34:50.724Z,83.30
2019-01-25T13:37:21.732Z,82.53
2019-01-25T13:39:52.191Z,82.91
2019-01-25T13:42:22.569Z,82.59
2019-01-25T13:44:53.300Z,82.72
2019-01-25T13:47:23.745Z,83.15
2019-01-25T13:49:54.160Z,84.18
2019-01-25T13:52:24.597Z,84.22
2019-01-25T13:54:55.164Z,83.40
2019-01-25T13:57:25.651Z,84.38
2019-01-25T13:59:57.270Z,83.45
2019-01-25T14:02:27.946Z,83.22
2019-01-25T14:04:59.778Z,84.04
2019-01-25T14:07:30.319Z,83.40
2019-01-25T14:10:01.122Z,83.89
2019-01-25T14:12:31.574Z,85.96
2019-01-25T14:15:02.381Z,84.03
2019-01-25T14:17:32.710Z,82.44
2019-01-25T14:20:03.522Z,84.25
2019-01-25T14:22:34.254Z,83.14
2019-01-25T14:25:05.196Z,82.54
2019-01-25T14:27:35.649Z,83.64
2019-01-25T14:30:14.395Z,83.51
2019-01-25T14:32:45.117Z,83.67
2019-01-25T14:35:16.021Z,83.78
2019-01-25T14:37:47.024Z,84.23
2019-01-25T14:40:17.879Z,83.95
2019-01-25T14:42:48.320Z,83.11
2019-01-25T14:45:19.299Z,83.98
2019-01-25T14:47:50.026Z,84.33
2019-01-25T14:50:22.309Z,83.61
2019-01-25T14:52:52.751Z,84.51
2019-01-25T14:55:23.483Z,84.23
2019-01-25T14:57:54.039Z,84.48
2019-01-25T15:00:24.989Z,86.04
2019-01-25T15:02:55.436Z,84.67
2019-01-25T15:05:25.978Z,84.63
2019-01-25T15:07:56.368Z,85.99
2019-01-25T15:10:27.136Z,84.44
2019-01-25T15:12:59.248Z,84.07
2019-01-25T15:15:29.870Z,84.23
2019-01-25T15:18:00.290Z,84.26
2019-01-25T15:20:31.553Z,85.21
2019-01-25T15:23:02.032Z,84.94
2019-01-25T15:25:32.658Z,86.50
2019-01-25T15:28:03.185Z,85.93
2019-01-25T15:30:34.144Z,85.52
2019-01-25T15:33:04.811Z,85.98
2019-01-25T15:35:35.322Z,86.12
2019-01-25T15:38:06.596Z,86.76
2019-01-25T15:40:37.352Z,86.22
2019-01-25T15:43:08.084Z,86.44
2019-01-25T15:45:38.547Z,86.41
2019-01-25T15:48:09.026Z,88.13
2019-01-25T15:50:39.687Z,88.87
2019-01-25T15:53:10.121Z,90.75
2019-01-25T15:55:40.579Z,92.76
2019-01-25T15:58:11.024Z,94.03
2019-01-25T16:00:41.475Z,95.81
2019-01-25T16:03:11.915Z,96.97
2019-01-25T16:05:42.401Z,99.03
2019-01-25T16:08:12.894Z,98.62
2019-01-25T16:10:43.247Z,99.49
2019-01-25T16:13:13.707Z,100.00
2019-01-25T16:15:44.164Z,100.00
2019-01-25T16:18:14.623Z,100.00
2019-01-25T16:20:45.056Z,100.00
2019-01-25T16:23:15.409Z,100.00
2019-01-25T16:25:46.073Z,100.00
2019-01-25T16:28:16.568Z,100.00
2019-01-25T16:30:47.054Z,100.00
2019-01-25T16:33:17.454Z,100.00
2019-01-25T16:35:47.906Z,100.00
2019-01-25T16:38:18.372Z,100.00
2019-01-25T16:40:49.819Z,100.00
2019-01-25T16:43:20.518Z,100.00
2019-01-25T16:45:50.956Z,100.00
2019-01-25T16:48:21.379Z,100.00
2019-01-25T16:50:51.828Z,100.00
2019-01-25T16:53:22.505Z,100.00
2019-01-25T16:55:52.946Z,100.00
2019-01-25T16:58:23.653Z,100.00
2019-01-25T17:00:54.076Z,100.00
2019-01-25T17:03:24.488Z,100.00
2019-01-25T17:05:54.932Z,100.00
2019-01-25T17:08:25.374Z,100.00
2019-01-25T17:10:55.815Z,100.00
2019-01-25T17:13:26.262Z,100.00
2019-01-25T17:15:56.691Z,100.00
2019-01-25T17:18:27.125Z,100.00
2019-01-25T17:20:57.641Z,100.00
2019-01-25T17:23:28.116Z,100.00
2019-01-25T17:25:58.600Z,100.00
2019-01-25T17:28:29.038Z,100.00
2019-01-25T17:30:59.743Z,100.00
2019-01-25T17:33:30.195Z,100.00
2019-01-25T17:36:00.661Z,100.00
2019-01-25T17:38:31.142Z,100.00
2019-01-25T17:41:01.604Z,100.00
2019-01-25T17:43:32.083Z,100.00
2019-01-25T17:46:02.797Z,100.00
2019-01-25T17:48:33.509Z,100.00
2019-01-25T17:51:04.577Z,100.00
2019-01-25T17:53:35.267Z,100.00
2019-01-25T17:56:06.019Z,100.00
2019-01-25T17:58:36.544Z,100.00
2019-01-25T18:01:07.027Z,100.00
2019-01-25T18:03:37.487Z,100.00
2019-01-25T18:06:08.237Z,100.00
2019-01-25T18:08:38.663Z,100.00
2019-01-25T18:11:09.407Z,100.00
2019-01-25T18:13:39.948Z,100.00
2019-01-25T18:16:10.379Z,100.00
2019-01-25T18:18:40.817Z,100.00
2019-01-25T18:21:11.559Z,100.00
2019-01-25T18:23:41.982Z,100.00
2019-01-25T18:26:17.643Z,100.00
2019-01-25T18:29:10.567Z,100.00
2019-01-25T18:31:41.025Z,100.00
2019-01-25T18:34:11.468Z,100.00
2019-01-25T18:36:42.260Z,100.00
2019-01-25T18:39:13.140Z,100.00
2019-01-25T18:41:43.789Z,100.00
2019-01-25T18:44:14.261Z,100.00
2019-01-25T18:46:45.006Z,100.00
2019-01-25T18:49:15.736Z,100.00
2019-01-25T18:51:46.211Z,100.00
2019-01-25T18:54:16.659Z,100.00
2019-01-25T18:56:49.788Z,100.00
2019-01-25T18:59:20.250Z,100.00
2019-01-25T19:01:51.287Z,100.00
2019-01-25T19:04:21.706Z,100.00
2019-01-25T19:06:52.188Z,100.00
2019-01-25T19:09:22.681Z,100.00
2019-01-25T19:11:53.132Z,100.00
2019-01-25T19:14:23.611Z,100.00
2019-01-25T19:16:54.075Z,100.00
2019-01-25T19:19:24.537Z,100.00
2019-01-25T19:21:55.289Z,100.00
2019-01-25T19:24:26.021Z,100.00
2019-01-25T19:26:56.476Z,100.00
2019-01-25T19:29:26.957Z,100.00
2019-01-25T19:31:57.453Z,100.00
2019-01-25T19:34:27.896Z,100.00
2019-01-25T19:36:58.386Z,100.00
2019-01-25T19:39:28.875Z,100.00
2019-01-25T19:41:59.355Z,100.00
2019-01-25T19:44:29.938Z,100.00
2019-01-25T19:47:00.654Z,100.00
2019-01-25T19:49:31.060Z,100.00
2019-01-25T19:52:01.769Z,100.00
2019-01-25T19:54:32.543Z,100.00
2019-01-25T19:57:03.322Z,100.00
2019-01-25T19:59:33.752Z,100.00
2019-01-25T20:02:04.559Z,100.00
2019-01-25T20:04:35.025Z,100.00
2019-01-25T20:07:05.525Z,100.00
2019-01-25T20:09:35.974Z,100.00
2019-01-25T20:12:06.759Z,100.00
2019-01-25T20:14:37.211Z,100.00
2019-01-25T20:17:07.806Z,100.00
2019-01-25T20:19:38.258Z,100.00
2019-01-25T20:22:09.372Z,100.00
2019-01-25T20:24:40.129Z,100.00
2019-01-25T20:27:10.568Z,100.00
2019-01-25T20:29:41.289Z,100.00
2019-01-25T20:32:12.131Z,100.00
2019-01-25T20:34:42.829Z,100.00
2019-01-25T20:37:13.730Z,100.00
2019-01-25T20:39:44.280Z,100.00
2019-01-25T20:42:14.737Z,100.00
2019-01-25T20:44:45.250Z,100.00
2019-01-25T20:47:15.714Z,100.00
2019-01-25T20:49:46.579Z,100.00
2019-01-25T20:52:20.218Z,100.00
2019-01-25T20:54:50.685Z,100.00
2019-01-25T20:57:21.308Z,100.00
2019-01-25T20:59:52.333Z,100.00
2019-01-25T21:02:23.087Z,100.00
2019-01-25T21:04:53.494Z,100.00
2019-01-25T21:07:24.002Z,100.00
2019-01-25T21:09:54.451Z,100.00
2019-01-25T21:12:25.421Z,100.00
2019-01-25T21:14:56.496Z,100.00
2019-01-25T21:17:27.753Z,100.00
2019-01-25T21:19:58.484Z,100.00
2019-01-25T21:22:29.416Z,100.00
2019-01-25T21:24:59.961Z,100.00
2019-01-25T21:27:30.702Z,100.00
2019-01-25T21:30:01.497Z,100.00
2019-01-25T21:32:32.176Z,100.00
2019-01-25T21:35:02.762Z,100.00
2019-01-25T21:37:33.457Z,100.00
2019-01-25T21:40:08.561Z,100.00
2019-01-25T21:42:37.930Z,100.00
2019-01-25T21:45:13.106Z,100.00
2019-01-25T21:47:43.783Z,100.00
2019-01-25T21:50:17.850Z,100.00
2019-01-25T21:52:48.842Z,100.00
2019-01-25T21:55:19.630Z,100.00
2019-01-25T21:57:51.689Z,100.00
2019-01-25T22:00:28.167Z,100.00
2019-01-25T22:02:58.603Z,100.00
2019-01-25T22:05:29.035Z,100.00
2019-01-25T22:07:59.665Z,100.00
2019-01-25T22:10:36.924Z,100.00
2019-01-25T22:13:07.565Z,100.00
2019-01-25T22:15:38.033Z,100.00
2019-01-25T22:18:08.813Z,100.00
2019-01-25T22:20:39.556Z,100.00
2019-01-25T22:23:10.002Z,100.00
2019-01-25T22:25:40.434Z,100.00
2019-01-25T22:28:10.903Z,100.00
2019-01-25T22:30:41.367Z,100.00
2019-01-25T22:33:12.056Z,100.00
2019-01-25T22:35:42.820Z,100.00
2019-01-25T22:38:13.321Z,100.00
2019-01-25T22:40:43.758Z,100.00
2019-01-25T22:43:14.246Z,100.00
2019-01-25T22:45:44.774Z,100.00
2019-01-25T22:48:15.212Z,100.00
2019-01-25T22:50:45.608Z,100.00
2019-01-25T22:53:16.319Z,100.00
2019-01-25T22:55:46.763Z,100.00
2019-01-25T22:58:17.274Z,100.00
2019-01-25T23:01:30.839Z,100.00
2019-01-25T23:05:02.457Z,100.00
2019-01-25T23:07:34.192Z,100.00
2019-01-25T23:10:21.596Z,100.00
2019-01-25T23:12:52.270Z,100.00
2019-01-25T23:15:24.813Z,100.00
2019-01-25T23:17:55.540Z,100.00
2019-01-25T23:20:25.997Z,100.00
2019-01-25T23:22:56.396Z,100.00
2019-01-25T23:25:26.859Z,100.00
2019-01-25T23:27:57.558Z,100.00
2019-01-25T23:30:28.326Z,100.00
2019-01-25T23:32:58.681Z,100.00
2019-01-25T23:35:29.045Z,100.00
2019-01-25T23:37:59.757Z,100.00
2019-01-25T23:40:30.502Z,100.00
2019-01-25T23:43:00.986Z,100.00
2019-01-25T23:45:31.943Z,100.00
2019-01-25T23:48:02.531Z,100.00
2019-01-25T23:50:33.288Z,100.00
2019-01-25T23:53:03.987Z,100.00
2019-01-25T23:55:34.545Z,100.00
2019-01-25T23:58:05.237Z,100.00
